createdAt,value
2022-11-24T00:01:22.438Z,96815.72
2022-11-24T00:04:24.674Z,96813.94
2022-11-24T00:07:26.765Z,96821.75
2022-11-24T00:10:28.897Z,96824.47
2022-11-24T00:13:31.051Z,96830.44
2022-11-24T00:16:35.950Z,96832.00
2022-11-24T00:19:38.683Z,96840.56
2022-11-24T00:22:40.800Z,96836.19
2022-11-24T00:25:42.889Z,96830.88
2022-11-24T00:28:46.932Z,96839.94
2022-11-24T00:31:49.122Z,96842.56
2022-11-24T00:34:51.217Z,96845.28
2022-11-24T00:37:54.250Z,96849.75
2022-11-24T00:40:56.389Z,96841.81
2022-11-24T00:43:59.279Z,96849.00
2022-11-24T00:47:01.513Z,96858.63
2022-11-24T00:50:04.668Z,96846.84
2022-11-24T00:53:06.915Z,96852.25
2022-11-24T00:56:10.419Z,96865.44
2022-11-24T00:59:12.497Z,96867.28
2022-11-24T01:02:14.715Z,96864.78
2022-11-24T01:05:16.881Z,96867.50
2022-11-24T01:08:19.030Z,96868.53
2022-11-24T01:11:51.585Z,96873.13
2022-11-24T01:14:53.662Z,96879.66
2022-11-24T01:17:56.437Z,96875.69
2022-11-24T01:20:58.580Z,96877.47
2022-11-24T01:24:00.675Z,96873.19
2022-11-24T01:27:02.714Z,96879.44
2022-11-24T01:30:06.456Z,96884.97
2022-11-24T01:33:09.069Z,96887.66
2022-11-24T01:36:11.272Z,96890.28
2022-11-24T01:39:14.128Z,96896.94
2022-11-24T01:42:16.295Z,96899.78
2022-11-24T01:45:33.371Z,96900.06
2022-11-24T01:48:44.063Z,96910.72
2022-11-24T01:51:49.939Z,96912.59
2022-11-24T01:55:06.770Z,96912.69
2022-11-24T01:58:24.492Z,96906.19
2022-11-24T02:01:26.747Z,96914.19
2022-11-24T02:04:33.548Z,96916.06
2022-11-24T02:07:37.962Z,96911.88
2022-11-24T02:10:40.060Z,96900.59
2022-11-24T02:13:44.154Z,96916.72
2022-11-24T02:16:50.703Z,96909.41
2022-11-24T02:20:08.894Z,96901.41
2022-11-24T02:23:48.246Z,96913.31
2022-11-24T02:26:52.328Z,96904.53
2022-11-24T02:29:54.466Z,96901.00
2022-11-24T02:32:56.877Z,96901.00
2022-11-24T02:35:59.031Z,96905.28
2022-11-24T02:39:01.103Z,96912.19
2022-11-24T02:42:10.719Z,96906.78
2022-11-24T02:45:15.410Z,96898.09
2022-11-24T02:48:18.109Z,96898.28
2022-11-24T02:51:20.389Z,96901.84
2022-11-24T02:54:22.777Z,96896.84
2022-11-24T02:57:24.874Z,96905.78
2022-11-24T03:00:26.933Z,96908.56
2022-11-24T03:03:29.083Z,96913.88
2022-11-24T03:06:31.216Z,96913.88
2022-11-24T03:09:33.391Z,96903.78
2022-11-24T03:12:35.548Z,96907.22
2022-11-24T03:15:38.057Z,96911.78
2022-11-24T03:18:40.540Z,96925.84
2022-11-24T03:21:42.716Z,96916.66
2022-11-24T03:24:44.890Z,96918.16
2022-11-24T03:27:47.403Z,96926.28
2022-11-24T03:30:50.502Z,96935.03
2022-11-24T03:33:52.851Z,96928.22
2022-11-24T03:36:54.911Z,96934.38
2022-11-24T03:39:57.009Z,96934.56
2022-11-24T03:42:59.067Z,96934.94
2022-11-24T03:46:01.202Z,96940.81
2022-11-24T03:49:03.497Z,96932.75
2022-11-24T03:52:08.273Z,96941.19
2022-11-24T03:55:10.662Z,96937.66
2022-11-24T03:58:12.738Z,96938.47
2022-11-24T04:01:14.875Z,96942.94
2022-11-24T04:04:17.003Z,96949.84
2022-11-24T04:07:19.260Z,96947.22
2022-11-24T04:10:21.393Z,96952.53
2022-11-24T04:13:25.676Z,96951.13
2022-11-24T04:16:27.786Z,96958.59
2022-11-24T04:19:30.227Z,96967.16
2022-11-24T04:22:32.518Z,96963.44
2022-11-24T04:25:35.195Z,96970.41
2022-11-24T04:28:37.801Z,96976.75
2022-11-24T04:31:39.933Z,96989.78
2022-11-24T04:34:42.012Z,96985.31
2022-11-24T04:37:44.095Z,96989.84
2022-11-24T04:40:46.241Z,96989.22
2022-11-24T04:43:51.550Z,96992.84
2022-11-24T04:46:54.110Z,96998.69
2022-11-24T04:49:56.265Z,97007.56
2022-11-24T04:52:58.355Z,97007.91
2022-11-24T04:56:04.202Z,97010.25
2022-11-24T04:59:08.436Z,97015.53
2022-11-24T05:02:11.445Z,97013.94
2022-11-24T05:05:13.647Z,97012.41
2022-11-24T05:08:15.841Z,97021.84
2022-11-24T05:11:19.203Z,97017.69
2022-11-24T05:14:21.282Z,97025.84
2022-11-24T05:17:23.320Z,97019.25
2022-11-24T05:20:25.992Z,97025.47
2022-11-24T05:23:28.083Z,97031.69
2022-11-24T05:26:30.249Z,97035.63
2022-11-24T05:29:32.272Z,97048.38
2022-11-24T05:32:34.731Z,97039.53
2022-11-24T05:35:36.959Z,97047.06
2022-11-24T05:38:38.964Z,97048.19
2022-11-24T05:41:42.529Z,97049.03
2022-11-24T05:44:44.528Z,97050.16
2022-11-24T05:47:47.588Z,97045.31
2022-11-24T05:50:55.847Z,97050.34
2022-11-24T05:53:57.903Z,97070.34
2022-11-24T05:56:59.914Z,97075.94
2022-11-24T06:00:02.451Z,97075.31
2022-11-24T06:03:14.445Z,97071.00
2022-11-24T06:06:16.498Z,97087.78
2022-11-24T06:09:18.635Z,97084.81
2022-11-24T06:12:20.779Z,97095.31
2022-11-24T06:15:22.984Z,97096.44
2022-11-24T06:18:25.141Z,97106.19
2022-11-24T06:21:28.449Z,97102.00
2022-11-24T06:24:30.451Z,97110.75
2022-11-24T06:27:32.620Z,97111.31
2022-11-24T06:30:34.670Z,97117.22
2022-11-24T06:33:39.120Z,97122.31
2022-11-24T06:36:41.167Z,97121.84
2022-11-24T06:39:43.242Z,97125.03
2022-11-24T06:42:51.458Z,97124.56
2022-11-24T06:45:53.593Z,97126.44
2022-11-24T06:48:55.763Z,97131.38
2022-11-24T06:51:57.762Z,97131.38
2022-11-24T06:54:59.895Z,97135.56
2022-11-24T06:58:02.104Z,97140.41
2022-11-24T07:01:04.203Z,97142.66
2022-11-24T07:04:06.364Z,97140.78
2022-11-24T07:07:08.488Z,97150.19
2022-11-24T07:10:10.555Z,97154.69
2022-11-24T07:13:12.582Z,97159.06
2022-11-24T07:16:25.401Z,97160.38
2022-11-24T07:19:27.534Z,97164.94
2022-11-24T07:22:29.602Z,97163.59
2022-11-24T07:25:31.576Z,97173.78
2022-11-24T07:28:35.034Z,97177.84
2022-11-24T07:31:37.157Z,97171.44
2022-11-24T07:34:39.281Z,97184.09
2022-11-24T07:37:41.339Z,97193.41
2022-11-24T07:40:43.723Z,97186.34
2022-11-24T07:43:46.901Z,97195.63
2022-11-24T07:46:51.446Z,97192.94
2022-11-24T07:49:53.514Z,97201.59
2022-11-24T07:52:55.649Z,97198.16
2022-11-24T07:56:02.376Z,97198.81
2022-11-24T07:59:04.712Z,97206.44
2022-11-24T08:02:06.848Z,97204.47
2022-11-24T08:05:09.342Z,97194.88
2022-11-24T08:08:11.403Z,97207.28
2022-11-24T08:11:16.039Z,97211.03
2022-11-24T08:14:18.080Z,97207.59
2022-11-24T08:17:20.428Z,97211.88
2022-11-24T08:20:22.456Z,97204.88
2022-11-24T08:23:24.598Z,97209.25
2022-11-24T08:26:26.871Z,97206.53
2022-11-24T08:29:32.501Z,97208.31
2022-11-24T08:32:34.498Z,97207.38
2022-11-24T08:35:38.383Z,97219.50
2022-11-24T08:38:40.821Z,97217.63
2022-11-24T08:41:42.945Z,97223.69
2022-11-24T08:44:45.022Z,97226.88
2022-11-24T08:47:52.938Z,97223.31
2022-11-24T08:50:55.095Z,97221.34
2022-11-24T08:53:59.192Z,97233.28
2022-11-24T08:57:01.165Z,97232.16
2022-11-24T09:00:05.380Z,97231.03
2022-11-24T09:03:07.371Z,97235.09
2022-11-24T09:06:09.875Z,97240.16
2022-11-24T09:09:12.121Z,97239.03
2022-11-24T09:12:14.667Z,97232.56
2022-11-24T09:15:17.406Z,97226.97
2022-11-24T09:18:19.428Z,97239.72
2022-11-24T09:21:23.552Z,97229.59
2022-11-24T09:24:25.706Z,97229.13
2022-11-24T09:27:28.270Z,97230.38
2022-11-24T09:30:30.455Z,97233.53
2022-11-24T09:33:33.807Z,97225.59
2022-11-24T09:36:36.876Z,97227.16
2022-11-24T09:39:39.051Z,97225.19
2022-11-24T09:43:19.495Z,97224.59
2022-11-24T09:46:21.540Z,97236.59
2022-11-24T09:49:51.524Z,97229.31
2022-11-24T09:53:06.051Z,97235.28
2022-11-24T09:56:26.455Z,97236.81
2022-11-24T09:59:28.753Z,97241.97
2022-11-24T10:02:30.818Z,97235.78
2022-11-24T10:05:36.340Z,97232.34
2022-11-24T10:09:12.223Z,97235.88
2022-11-24T10:12:30.685Z,97232.25
2022-11-24T10:16:21.054Z,97231.19
2022-11-24T10:19:52.476Z,97238.13
2022-11-24T10:23:18.593Z,97239.56
2022-11-24T10:26:26.545Z,97242.19
2022-11-24T10:29:40.251Z,97232.47
2022-11-24T10:33:08.084Z,97240.13
2022-11-24T10:36:20.236Z,97251.09
2022-11-24T10:39:28.078Z,97242.94
2022-11-24T10:42:33.804Z,97249.97
2022-11-24T10:45:37.702Z,97244.75
2022-11-24T10:49:04.576Z,97238.47
2022-11-24T10:52:15.069Z,97231.56
2022-11-24T10:55:17.556Z,97234.63
2022-11-24T10:58:37.319Z,97240.66
2022-11-24T11:01:40.084Z,97240.00
2022-11-24T11:04:42.141Z,97236.16
2022-11-24T11:07:44.336Z,97241.38
2022-11-24T11:10:48.405Z,97245.16
2022-11-24T11:14:03.361Z,97242.97
2022-11-24T11:17:44.090Z,97239.41
2022-11-24T11:20:54.790Z,97230.59
2022-11-24T11:23:57.582Z,97237.41
2022-11-24T11:27:06.249Z,97242.94
2022-11-24T11:34:23.296Z,97237.19
2022-11-24T11:37:33.187Z,97232.31
2022-11-24T11:40:35.288Z,97237.75
2022-11-24T11:43:41.183Z,97230.16
2022-11-24T11:46:44.596Z,97231.03
2022-11-24T11:49:49.184Z,97227.91
2022-11-24T11:53:04.993Z,97236.06
2022-11-24T11:56:26.121Z,97227.84
2022-11-24T11:59:40.273Z,97239.19
2022-11-24T12:03:26.484Z,97237.41
2022-11-24T12:06:56.787Z,97242.44
2022-11-24T12:10:22.642Z,97237.72
2022-11-24T12:13:43.402Z,97241.75
2022-11-24T12:17:15.325Z,97239.06
2022-11-24T12:20:36.959Z,97246.91
2022-11-24T12:23:49.184Z,97243.94
2022-11-24T12:27:09.380Z,97251.44
2022-11-24T12:30:16.139Z,97252.06
2022-11-24T12:33:21.309Z,97250.25
2022-11-24T12:36:38.190Z,97249.25
2022-11-24T12:39:49.369Z,97251.06
2022-11-24T12:43:06.672Z,97253.22
2022-11-24T12:46:29.491Z,97259.88
2022-11-24T12:49:47.862Z,97256.06
2022-11-24T12:53:35.023Z,97255.09
2022-11-24T12:56:40.875Z,97253.06
2022-11-24T12:59:57.864Z,97267.50
2022-11-24T13:03:25.901Z,97253.28
2022-11-24T13:06:51.199Z,97256.41
2022-11-24T13:10:34.916Z,97264.16
2022-11-24T13:14:06.809Z,97266.41
2022-11-24T13:17:47.584Z,97270.56
2022-11-24T13:20:54.928Z,97265.91
2022-11-24T13:24:17.053Z,97273.06
2022-11-24T13:27:27.894Z,97267.34
2022-11-24T13:30:35.881Z,97270.69
2022-11-24T13:33:38.710Z,97275.22
2022-11-24T13:36:54.046Z,97274.50
2022-11-24T13:39:58.652Z,97277.69
2022-11-24T13:43:02.723Z,97280.78
2022-11-24T13:46:04.865Z,97287.91
2022-11-24T13:49:14.721Z,97288.13
2022-11-24T13:52:41.187Z,97282.28
2022-11-24T13:56:00.138Z,97282.28
2022-11-24T13:59:16.851Z,97285.97
2022-11-24T14:02:24.276Z,97291.44
2022-11-24T14:05:48.372Z,97298.34
2022-11-24T14:08:50.664Z,97292.38
2022-11-24T14:12:15.027Z,97303.84
2022-11-24T14:15:34.425Z,97297.34
2022-11-24T14:18:38.526Z,97310.91
2022-11-24T14:21:45.281Z,97310.53
2022-11-24T14:24:59.060Z,97304.09
2022-11-24T14:28:01.458Z,97315.22
2022-11-24T14:31:30.581Z,97312.72
2022-11-24T14:34:36.163Z,97313.75
2022-11-24T14:37:38.529Z,97321.06
2022-11-24T14:40:42.199Z,97320.66
2022-11-24T14:43:44.403Z,97324.22
2022-11-24T14:46:47.484Z,97325.72
2022-11-24T14:49:50.912Z,97336.44
2022-11-24T14:52:56.090Z,97330.22
2022-11-24T14:56:28.997Z,97333.81
2022-11-24T14:59:34.786Z,97334.94
2022-11-24T15:02:47.641Z,97347.69
2022-11-24T15:05:53.536Z,97337.84
2022-11-24T15:08:55.680Z,97340.06
2022-11-24T15:12:04.672Z,97345.72
2022-11-24T15:15:15.890Z,97345.72
2022-11-24T15:18:37.169Z,97341.31
2022-11-24T15:21:39.319Z,97351.91
2022-11-24T15:24:59.379Z,97358.94
2022-11-24T15:28:01.739Z,97351.41
2022-11-24T15:31:06.250Z,97364.81
2022-11-24T15:34:12.925Z,97363.47
2022-11-24T15:37:15.012Z,97370.09
2022-11-24T15:40:17.945Z,97365.69
2022-11-24T15:43:32.041Z,97372.50
2022-11-24T15:46:38.286Z,97374.06
2022-11-24T15:49:40.579Z,97376.59
2022-11-24T15:52:43.892Z,97371.44
2022-11-24T15:55:46.983Z,97368.31
2022-11-24T15:58:49.075Z,97382.97
2022-11-24T16:01:51.262Z,97381.28
2022-11-24T16:04:53.337Z,97382.78
2022-11-24T16:07:55.525Z,97384.56
2022-11-24T16:10:57.862Z,97388.41
2022-11-24T16:14:00.176Z,97392.97
2022-11-24T16:17:02.804Z,97394.00
2022-11-24T16:20:06.179Z,97400.28
2022-11-24T16:23:08.480Z,97403.00
2022-11-24T16:26:10.923Z,97412.88
2022-11-24T16:29:13.176Z,97411.50
2022-11-24T16:32:15.360Z,97410.88
2022-11-24T16:35:18.054Z,97422.19
2022-11-24T16:38:20.859Z,97422.94
2022-11-24T16:41:23.432Z,97430.59
2022-11-24T16:44:25.982Z,97431.84
2022-11-24T16:47:28.278Z,97444.84
2022-11-24T16:50:30.796Z,97448.31
2022-11-24T16:53:33.796Z,97446.03
2022-11-24T16:56:36.002Z,97454.50
2022-11-24T16:59:38.743Z,97462.47
2022-11-24T17:02:41.148Z,97458.16
2022-11-24T17:05:44.097Z,97472.00
2022-11-24T17:08:49.083Z,97473.88
2022-11-24T17:11:52.081Z,97476.50
2022-11-24T17:15:30.554Z,97480.81
2022-11-24T17:18:24.956Z,97487.63
2022-11-24T17:21:28.677Z,97488.19
2022-11-24T17:24:31.985Z,97489.53
2022-11-24T17:27:34.667Z,97493.09
2022-11-24T17:30:38.352Z,97508.41
2022-11-24T17:33:42.051Z,97502.19
2022-11-24T17:36:46.694Z,97509.75
2022-11-24T17:40:05.972Z,97512.13
2022-11-24T17:43:13.770Z,97510.16
2022-11-24T17:46:17.241Z,97513.63
2022-11-24T17:49:21.423Z,97516.34
2022-11-24T17:52:25.371Z,97513.91
2022-11-24T17:55:28.044Z,97511.63
2022-11-24T17:58:32.612Z,97518.72
2022-11-24T18:01:37.520Z,97525.75
2022-11-24T18:04:40.426Z,97531.09
2022-11-24T18:07:43.263Z,97524.16
2022-11-24T18:10:46.252Z,97524.16
2022-11-24T18:13:58.380Z,97542.50
2022-11-24T18:17:03.560Z,97538.34
2022-11-24T18:20:09.573Z,97542.63
2022-11-24T18:23:12.740Z,97548.72
2022-11-24T18:26:16.959Z,97546.91
2022-11-24T18:29:21.276Z,97535.72
2022-11-24T18:32:24.203Z,97549.00
2022-11-24T18:35:28.354Z,97549.00
2022-11-24T18:38:33.356Z,97553.31
2022-11-24T18:41:37.866Z,97552.56
2022-11-24T18:44:43.001Z,97554.53
2022-11-24T18:47:45.889Z,97547.63
2022-11-24T18:50:56.339Z,97552.88
2022-11-24T18:54:02.745Z,97549.50
2022-11-24T18:57:05.527Z,97554.09
2022-11-24T19:00:09.623Z,97551.78
2022-11-24T19:03:12.594Z,97556.38
2022-11-24T19:06:34.239Z,97553.66
2022-11-24T19:09:42.161Z,97558.06
2022-11-24T19:12:46.337Z,97561.53
2022-11-24T19:15:50.605Z,97573.47
2022-11-24T19:18:58.101Z,97571.59
2022-11-24T19:22:03.331Z,97579.06
2022-11-24T19:25:07.992Z,97583.16
2022-11-24T19:28:13.864Z,97580.25
2022-11-24T19:31:18.402Z,97593.38
2022-11-24T19:34:21.557Z,97586.34
2022-11-24T19:37:24.968Z,97601.94
2022-11-24T19:40:28.086Z,97591.78
2022-11-24T19:43:32.315Z,97592.53
2022-11-24T19:46:35.501Z,97591.59
2022-11-24T19:49:38.092Z,97592.31
2022-11-24T19:52:41.296Z,97596.81
2022-11-24T19:55:44.531Z,97593.38
2022-11-24T19:58:52.120Z,97599.44
2022-11-24T20:01:55.338Z,97602.25
2022-11-24T20:04:58.451Z,97606.75
2022-11-24T20:08:01.759Z,97616.69
2022-11-24T20:11:07.173Z,97621.81
2022-11-24T20:14:14.416Z,97619.00
2022-11-24T20:17:17.632Z,97619.94
2022-11-24T20:20:20.296Z,97626.03
2022-11-24T20:23:23.447Z,97620.78
2022-11-24T20:26:30.130Z,97628.75
2022-11-24T20:29:34.267Z,97633.25
2022-11-24T20:32:38.976Z,97626.88
2022-11-24T20:35:42.142Z,97619.75
2022-11-24T20:38:49.542Z,97638.28
2022-11-24T20:41:53.655Z,97629.81
2022-11-24T20:44:56.562Z,97629.59
2022-11-24T20:47:59.475Z,97634.72
2022-11-24T20:51:13.313Z,97641.75
2022-11-24T20:54:18.476Z,97644.69
2022-11-24T20:57:21.631Z,97645.13
2022-11-24T21:00:24.609Z,97654.97
2022-11-24T21:03:26.995Z,97648.59
2022-11-24T21:06:30.805Z,97652.19
2022-11-24T21:09:34.208Z,97654.13
2022-11-24T21:12:36.920Z,97657.69
2022-11-24T21:15:39.436Z,97665.47
2022-11-24T21:18:42.304Z,97660.41
2022-11-24T21:21:48.750Z,97668.44
2022-11-24T21:24:51.425Z,97663.41
2022-11-24T21:27:53.814Z,97664.34
2022-11-24T21:30:56.299Z,97665.28
2022-11-24T21:33:58.981Z,97676.78
2022-11-24T21:37:01.045Z,97678.78
2022-11-24T21:40:03.252Z,97684.81
2022-11-24T21:43:05.247Z,97688.28
2022-11-24T21:46:10.918Z,97690.53
2022-11-24T21:49:13.806Z,97687.09
2022-11-24T21:52:15.897Z,97694.94
2022-11-24T21:55:18.398Z,97700.09
2022-11-24T21:58:20.407Z,97692.31
2022-11-24T22:01:25.268Z,97702.81
2022-11-24T22:04:27.350Z,97705.31
2022-11-24T22:07:32.917Z,97707.09
2022-11-24T22:10:34.991Z,97706.44
2022-11-24T22:13:37.047Z,97710.91
2022-11-24T22:16:39.346Z,97725.13
2022-11-24T22:19:41.514Z,97731.22
2022-11-24T22:22:43.577Z,97724.09
2022-11-24T22:25:46.118Z,97725.63
2022-11-24T22:28:48.370Z,97725.63
2022-11-24T22:31:50.501Z,97723.75
2022-11-24T22:34:52.656Z,97730.00
2022-11-24T22:37:54.752Z,97728.22
2022-11-24T22:41:02.050Z,97731.78
2022-11-24T22:44:05.454Z,97734.66
2022-11-24T22:47:07.593Z,97740.94
2022-11-24T22:50:10.067Z,97735.69
2022-11-24T22:53:12.134Z,97747.00
2022-11-24T22:56:14.377Z,97751.25
2022-11-24T22:59:16.499Z,97744.25
2022-11-24T23:02:18.576Z,97742.53
2022-11-24T23:05:20.924Z,97738.16
2022-11-24T23:08:23.243Z,97744.47
2022-11-24T23:11:34.852Z,97744.66
2022-11-24T23:14:38.584Z,97741.09
2022-11-24T23:17:40.671Z,97740.16
2022-11-24T23:20:42.744Z,97743.72
2022-11-24T23:23:45.733Z,97730.00
2022-11-24T23:26:47.882Z,97746.81
2022-11-24T23:29:49.952Z,97741.75
2022-11-24T23:32:53.075Z,97746.97
2022-11-24T23:35:55.141Z,97758.97
2022-11-24T23:39:02.409Z,97746.63
2022-11-24T23:42:04.489Z,97744.84
2022-11-24T23:45:08.226Z,97759.63
2022-11-24T23:48:10.276Z,97755.97
2022-11-24T23:51:16.640Z,97764.75
2022-11-24T23:54:18.699Z,97758.88
